createdAt,value
2018-04-22T00:00:48.340Z,22.40
2018-04-22T00:01:48.438Z,22.70
2018-04-22T00:02:48.535Z,22.50
2018-04-22T00:03:48.629Z,22.40
2018-04-22T00:04:48.737Z,22.40
2018-04-22T00:05:48.822Z,22.90
2018-04-22T00:06:48.921Z,21.90
2018-04-22T00:07:49.014Z,21.50
2018-04-22T00:08:49.114Z,22.40
2018-04-22T00:09:49.209Z,22.90
2018-04-22T00:10:49.309Z,22.70
2018-04-22T00:11:49.404Z,23.10
2018-04-22T00:12:49.494Z,23.20
2018-04-22T00:13:49.593Z,22.80
2018-04-22T00:14:49.686Z,23.40
2018-04-22T00:15:49.783Z,22.60
2018-04-22T00:16:49.878Z,23.80
2018-04-22T00:17:49.974Z,24.00
2018-04-22T00:18:50.076Z,23.60
2018-04-22T00:19:50.183Z,23.60
2018-04-22T00:20:50.260Z,23.60
2018-04-22T00:21:50.358Z,23.60
2018-04-22T00:22:50.454Z,23.00
2018-04-22T00:23:50.553Z,23.70
2018-04-22T00:24:50.651Z,22.90
2018-04-22T00:25:50.747Z,22.50
2018-04-22T00:26:50.843Z,23.00
2018-04-22T00:27:50.940Z,23.30
2018-04-22T00:28:51.031Z,23.10
2018-04-22T00:29:51.129Z,23.10
2018-04-22T00:30:51.232Z,23.00
2018-04-22T00:31:51.326Z,21.70
2018-04-22T00:32:51.419Z,22.20
2018-04-22T00:33:51.512Z,21.00
2018-04-22T00:34:51.610Z,21.00
2018-04-22T00:35:51.706Z,21.20
2018-04-22T00:36:51.804Z,21.70
2018-04-22T00:37:51.898Z,21.40
2018-04-22T00:38:52.005Z,21.60
2018-04-22T00:39:52.105Z,21.00
2018-04-22T00:40:52.203Z,21.70
2018-04-22T00:41:52.299Z,22.00
2018-04-22T00:42:52.396Z,22.10
2018-04-22T00:43:52.492Z,21.70
2018-04-22T00:44:52.589Z,22.00
2018-04-22T00:45:52.683Z,22.70
2018-04-22T00:46:52.779Z,22.60
2018-04-22T00:47:52.878Z,23.20
2018-04-22T00:48:52.973Z,22.20
2018-04-22T00:49:53.073Z,22.00
2018-04-22T00:50:53.166Z,23.10
2018-04-22T00:51:53.267Z,22.00
2018-04-22T00:52:53.360Z,23.30
2018-04-22T00:53:53.450Z,22.70
2018-04-22T00:54:53.548Z,22.70
2018-04-22T00:55:53.643Z,23.20
2018-04-22T00:56:53.744Z,22.50
2018-04-22T00:57:53.840Z,23.20
2018-04-22T00:58:53.939Z,22.90
2018-04-22T00:59:54.035Z,23.30
2018-04-22T01:00:54.133Z,23.40
2018-04-22T01:01:54.232Z,22.40
2018-04-22T01:02:54.332Z,22.50
2018-04-22T01:03:54.429Z,22.70
2018-04-22T01:04:54.525Z,22.10
2018-04-22T01:05:54.620Z,22.30
2018-04-22T01:06:54.717Z,21.70
2018-04-22T01:07:54.810Z,22.40
2018-04-22T01:08:54.908Z,22.70
2018-04-22T01:09:55.002Z,22.10
2018-04-22T01:10:55.105Z,22.20
2018-04-22T01:11:55.199Z,22.20
2018-04-22T01:12:55.289Z,22.30
2018-04-22T01:13:55.384Z,22.70
2018-04-22T01:14:55.482Z,21.30
2018-04-22T01:15:55.581Z,21.90
2018-04-22T01:16:55.677Z,22.60
2018-04-22T01:17:55.777Z,22.70
2018-04-22T01:18:55.874Z,22.40
2018-04-22T01:19:55.972Z,22.80
2018-04-22T01:20:56.061Z,22.40
2018-04-22T01:21:56.185Z,23.30
2018-04-22T01:22:56.204Z,22.40
2018-04-22T01:23:56.331Z,23.40
2018-04-22T01:24:56.414Z,22.70
2018-04-22T01:25:56.501Z,23.10
2018-04-22T01:26:56.798Z,24.20
2018-04-22T01:27:56.723Z,23.40
2018-04-22T01:28:56.805Z,23.20
2018-04-22T01:29:56.931Z,23.80
2018-04-22T01:30:57.076Z,23.30
2018-04-22T01:31:57.234Z,22.80
2018-04-22T01:32:57.248Z,22.80
2018-04-22T01:33:57.275Z,23.10
2018-04-22T01:34:57.367Z,23.40
2018-04-22T01:35:57.458Z,22.70
2018-04-22T01:36:57.544Z,22.90
2018-04-22T01:37:57.662Z,23.00
2018-04-22T01:38:57.772Z,22.50
2018-04-22T01:39:57.869Z,23.40
2018-04-22T01:40:57.994Z,23.20
2018-04-22T01:41:58.181Z,22.60
2018-04-22T01:42:58.170Z,22.20
2018-04-22T01:43:58.297Z,22.90
2018-04-22T01:44:58.412Z,22.30
2018-04-22T01:45:58.525Z,22.40
2018-04-22T01:46:58.640Z,22.90
2018-04-22T01:48:06.379Z,23.40
2018-04-22T01:49:06.524Z,23.40
2018-04-22T01:49:58.984Z,23.50
2018-04-22T01:50:59.100Z,23.70
2018-04-22T01:51:59.198Z,23.30
2018-04-22T01:52:59.441Z,23.60
2018-04-22T01:53:59.498Z,22.70
2018-04-22T01:54:59.552Z,22.20
2018-04-22T01:55:59.743Z,23.10
2018-04-22T01:56:59.810Z,23.70
2018-04-22T01:57:59.941Z,22.30
2018-04-22T01:59:00.061Z,22.00
2018-04-22T02:00:00.154Z,22.30
2018-04-22T02:01:00.225Z,21.50
2018-04-22T02:02:00.355Z,22.20
2018-04-22T02:03:00.467Z,22.10
2018-04-22T02:04:00.571Z,21.80
2018-04-22T02:05:00.562Z,22.30
2018-04-22T02:06:00.676Z,21.90
2018-04-22T02:07:00.797Z,21.80
2018-04-22T02:08:00.884Z,21.80
2018-04-22T02:09:00.968Z,22.80
2018-04-22T02:10:01.127Z,21.60
2018-04-22T02:11:01.136Z,21.90
2018-04-22T02:12:01.262Z,23.00
2018-04-22T02:13:01.367Z,22.70
2018-04-22T02:14:01.477Z,22.90
2018-04-22T02:15:01.629Z,21.40
2018-04-22T02:16:01.722Z,21.20
2018-04-22T02:17:01.842Z,21.90
2018-04-22T02:18:01.932Z,21.30
2018-04-22T02:19:02.050Z,21.30
2018-04-22T02:20:02.150Z,21.90
2018-04-22T02:21:02.235Z,21.60
2018-04-22T02:22:02.325Z,22.50
2018-04-22T02:23:02.465Z,22.20
2018-04-22T02:24:02.580Z,21.10
2018-04-22T02:25:02.627Z,22.00
2018-04-22T02:26:02.723Z,21.20
2018-04-22T02:27:02.821Z,21.40
2018-04-22T02:28:02.908Z,22.50
2018-04-22T02:29:03.016Z,21.20
2018-04-22T02:30:03.112Z,22.30
2018-04-22T02:31:03.212Z,21.60
2018-04-22T02:32:03.324Z,22.10
2018-04-22T02:33:03.402Z,20.90
2018-04-22T02:34:03.565Z,21.50
2018-04-22T02:35:03.659Z,22.20
2018-04-22T02:36:03.767Z,21.60
2018-04-22T02:37:03.886Z,21.70
2018-04-22T02:38:03.972Z,22.20
2018-04-22T02:39:04.063Z,22.10
2018-04-22T02:40:04.211Z,21.10
2018-04-22T02:41:04.332Z,22.70
2018-04-22T02:42:04.466Z,22.00
2018-04-22T02:43:04.571Z,21.60
2018-04-22T02:44:04.697Z,21.50
2018-04-22T02:45:04.819Z,22.20
2018-04-22T02:46:04.912Z,21.30
2018-04-22T02:47:05.027Z,20.70
2018-04-22T02:48:05.297Z,21.70
2018-04-22T02:49:12.802Z,21.50
2018-04-22T02:50:05.283Z,22.00
2018-04-22T02:51:05.370Z,21.60
2018-04-22T02:52:05.467Z,21.70
2018-04-22T02:53:05.555Z,22.10
2018-04-22T02:54:05.653Z,21.50
2018-04-22T02:55:05.737Z,22.10
2018-04-22T02:56:05.825Z,21.30
2018-04-22T02:57:05.954Z,21.80
2018-04-22T02:58:06.228Z,22.30
2018-04-22T02:59:06.211Z,22.80
2018-04-22T03:00:06.301Z,22.70
2018-04-22T03:01:06.429Z,22.80
2018-04-22T03:02:06.535Z,22.30
2018-04-22T03:03:06.630Z,22.50
2018-04-22T03:04:06.732Z,22.00
2018-04-22T03:05:06.843Z,21.90
2018-04-22T03:06:07.031Z,22.20
2018-04-22T03:07:07.143Z,22.60
2018-04-22T03:08:07.238Z,22.20
2018-04-22T03:09:07.340Z,22.30
2018-04-22T03:10:07.494Z,21.10
2018-04-22T03:11:07.613Z,22.00
2018-04-22T03:12:07.710Z,22.40
2018-04-22T03:13:07.820Z,21.10
2018-04-22T03:14:07.965Z,20.90
2018-04-22T03:15:07.953Z,21.50
2018-04-22T03:16:07.989Z,21.70
2018-04-22T03:17:08.072Z,20.70
2018-04-22T03:18:08.154Z,21.40
2018-04-22T03:19:08.273Z,21.90
2018-04-22T03:20:08.384Z,22.00
2018-04-22T03:21:08.494Z,21.90
2018-04-22T03:22:08.622Z,20.90
2018-04-22T03:23:08.721Z,21.20
2018-04-22T03:24:08.882Z,21.00
2018-04-22T03:25:08.860Z,20.60
2018-04-22T03:26:08.956Z,20.30
2018-04-22T03:27:09.084Z,21.00
2018-04-22T03:28:09.170Z,21.50
2018-04-22T03:29:09.284Z,20.00
2018-04-22T03:30:09.436Z,21.90
2018-04-22T03:31:09.542Z,21.20
2018-04-22T03:32:09.671Z,20.90
2018-04-22T03:33:09.868Z,20.90
2018-04-22T03:34:09.867Z,21.30
2018-04-22T03:35:09.978Z,21.60
2018-04-22T03:36:09.942Z,20.20
2018-04-22T03:37:10.045Z,20.60
2018-04-22T03:38:10.175Z,20.40
2018-04-22T03:39:10.229Z,20.50
2018-04-22T03:40:10.326Z,21.20
2018-04-22T03:41:10.467Z,21.90
2018-04-22T03:42:10.503Z,21.70
2018-04-22T03:43:10.596Z,22.40
2018-04-22T03:44:10.694Z,24.50
2018-04-22T03:45:10.776Z,24.90
2018-04-22T03:46:10.891Z,25.00
2018-04-22T03:47:11.012Z,24.10
2018-04-22T03:48:11.110Z,24.00
2018-04-22T03:49:11.255Z,23.70
2018-04-22T03:50:11.349Z,23.80
2018-04-22T03:51:11.483Z,24.00
2018-04-22T03:52:11.581Z,23.80
2018-04-22T03:53:11.675Z,24.80
2018-04-22T03:54:11.770Z,24.40
2018-04-22T03:55:11.857Z,23.70
2018-04-22T03:56:11.964Z,23.80
2018-04-22T03:57:12.061Z,24.30
2018-04-22T03:58:12.158Z,23.70
2018-04-22T03:59:12.253Z,23.90
2018-04-22T04:00:12.355Z,24.30
2018-04-22T04:01:12.446Z,24.90
2018-04-22T04:02:12.543Z,25.20
2018-04-22T04:03:12.637Z,25.40
2018-04-22T04:04:12.735Z,24.70
2018-04-22T04:05:12.826Z,24.60
2018-04-22T04:06:12.923Z,25.10
2018-04-22T04:07:13.026Z,25.30
2018-04-22T04:08:13.141Z,25.30
2018-04-22T04:09:13.234Z,25.50
2018-04-22T04:10:13.338Z,26.30
2018-04-22T04:11:13.428Z,25.80
2018-04-22T04:12:13.526Z,25.60
2018-04-22T04:13:13.623Z,24.60
2018-04-22T04:14:13.720Z,25.20
2018-04-22T04:15:13.817Z,24.70
2018-04-22T04:16:13.913Z,25.00
2018-04-22T04:17:14.008Z,24.40
2018-04-22T04:18:14.104Z,24.30
2018-04-22T04:19:14.248Z,24.00
2018-04-22T04:20:14.303Z,23.10
2018-04-22T04:21:14.394Z,23.50
2018-04-22T04:22:14.488Z,24.20
2018-04-22T04:23:14.584Z,22.80
2018-04-22T04:24:14.677Z,24.40
2018-04-22T04:25:14.770Z,23.70
2018-04-22T04:26:14.865Z,24.10
2018-04-22T04:27:14.962Z,23.10
2018-04-22T04:28:15.070Z,22.80
2018-04-22T04:29:15.167Z,24.30
2018-04-22T04:30:15.264Z,23.00
2018-04-22T04:31:15.361Z,22.30
2018-04-22T04:32:15.458Z,23.20
2018-04-22T04:33:15.552Z,23.50
2018-04-22T04:34:15.659Z,23.90
2018-04-22T04:35:15.754Z,23.40
2018-04-22T04:36:15.850Z,23.70
2018-04-22T04:37:15.946Z,23.80
2018-04-22T04:38:16.047Z,24.60
2018-04-22T04:39:16.145Z,23.20
2018-04-22T04:40:16.242Z,23.80
2018-04-22T04:41:16.336Z,23.10
2018-04-22T04:42:16.433Z,23.70
2018-04-22T04:43:16.518Z,23.30
2018-04-22T04:44:16.617Z,23.40
2018-04-22T04:45:16.715Z,22.80
2018-04-22T04:46:16.816Z,22.80
2018-04-22T04:47:16.913Z,22.90
2018-04-22T04:48:17.008Z,22.30
2018-04-22T04:49:17.107Z,22.60
2018-04-22T04:50:17.201Z,22.80
2018-04-22T04:51:17.298Z,22.90
2018-04-22T04:52:17.396Z,22.10
2018-04-22T04:53:17.492Z,22.50
2018-04-22T04:54:17.611Z,24.00
2018-04-22T04:55:17.683Z,22.50
2018-04-22T04:56:17.781Z,22.40
2018-04-22T04:57:17.882Z,23.30
2018-04-22T04:58:17.978Z,22.70
2018-04-22T04:59:18.075Z,22.60
2018-04-22T05:00:18.195Z,21.70
2018-04-22T05:01:18.266Z,21.90
2018-04-22T05:02:18.369Z,23.20
2018-04-22T05:03:18.463Z,22.10
2018-04-22T05:04:18.561Z,22.30
2018-04-22T05:05:18.658Z,22.40
2018-04-22T05:06:18.760Z,22.10
2018-04-22T05:07:18.851Z,21.80
2018-04-22T05:08:18.958Z,21.90
2018-04-22T05:09:19.043Z,21.60
2018-04-22T05:10:19.142Z,22.20
2018-04-22T05:11:19.247Z,21.90
2018-04-22T05:12:19.337Z,21.30
2018-04-22T05:13:19.435Z,21.70
2018-04-22T05:14:19.529Z,22.30
2018-04-22T05:15:19.647Z,21.70
2018-04-22T05:16:19.743Z,22.20
2018-04-22T05:17:19.838Z,21.70
2018-04-22T05:18:19.936Z,22.60
2018-04-22T05:19:20.035Z,22.00
2018-04-22T05:20:20.128Z,21.90
2018-04-22T05:21:20.224Z,22.40
2018-04-22T05:22:20.322Z,21.90
2018-04-22T05:23:20.416Z,21.90
2018-04-22T05:24:20.535Z,22.00
2018-04-22T05:25:20.620Z,22.50
2018-04-22T05:26:20.709Z,21.80
2018-04-22T05:27:20.803Z,21.40
2018-04-22T05:28:20.902Z,21.00
2018-04-22T05:29:20.994Z,22.20
2018-04-22T05:30:21.089Z,21.40
2018-04-22T05:31:21.187Z,23.30
2018-04-22T05:32:21.284Z,22.30
2018-04-22T05:33:21.382Z,22.20
2018-04-22T05:34:21.478Z,23.20
2018-04-22T05:35:21.579Z,23.20
2018-04-22T05:36:21.672Z,24.50
2018-04-22T05:37:21.774Z,24.10
2018-04-22T05:38:21.868Z,24.30
2018-04-22T05:39:21.974Z,24.60
2018-04-22T05:40:22.060Z,25.00
2018-04-22T05:41:22.159Z,25.40
2018-04-22T05:42:22.254Z,25.40
2018-04-22T05:43:22.357Z,25.60
2018-04-22T05:44:22.458Z,25.60
2018-04-22T05:45:22.551Z,24.20
2018-04-22T05:46:22.646Z,24.60
2018-04-22T05:47:22.744Z,25.40
2018-04-22T05:48:22.832Z,25.50
2018-04-22T05:49:23.029Z,25.60
2018-04-22T05:50:23.022Z,25.70
2018-04-22T05:51:23.118Z,24.90
2018-04-22T05:52:23.210Z,25.90
2018-04-22T05:53:23.328Z,24.80
2018-04-22T05:54:23.529Z,25.20
2018-04-22T05:55:23.521Z,25.30
2018-04-22T05:56:23.766Z,24.90
2018-04-22T05:57:23.805Z,25.10
2018-04-22T05:58:23.868Z,24.70
2018-04-22T05:59:23.966Z,25.50
2018-04-22T06:00:24.058Z,26.00
2018-04-22T06:01:24.140Z,25.50
2018-04-22T06:02:24.282Z,25.60
2018-04-22T06:03:24.413Z,25.30
2018-04-22T06:04:24.511Z,24.70
2018-04-22T06:05:24.593Z,24.20
2018-04-22T06:06:24.679Z,22.50
2018-04-22T06:07:24.773Z,23.80
2018-04-22T06:08:24.877Z,23.10
2018-04-22T06:09:25.701Z,22.20
2018-04-22T06:10:25.147Z,21.90
2018-04-22T06:11:25.196Z,22.50
2018-04-22T06:12:25.293Z,21.90
2018-04-22T06:13:25.511Z,21.10
2018-04-22T06:14:25.489Z,21.50
2018-04-22T06:15:25.631Z,21.70
2018-04-22T06:16:25.641Z,21.30
2018-04-22T06:17:25.768Z,21.10
2018-04-22T06:18:25.906Z,20.30
2018-04-22T06:19:25.916Z,21.00
2018-04-22T06:20:26.021Z,20.50
2018-04-22T06:21:26.122Z,21.30
2018-04-22T06:22:27.147Z,20.40
2018-04-22T06:23:27.052Z,22.10
2018-04-22T06:24:26.597Z,21.90
2018-04-22T06:25:26.663Z,22.20
2018-04-22T06:26:26.551Z,22.70
2018-04-22T06:27:26.698Z,23.50
2018-04-22T06:28:26.837Z,23.30
2018-04-22T06:29:27.073Z,23.80
2018-04-22T06:30:30.797Z,22.90
2018-04-22T06:31:29.060Z,23.10
2018-04-22T06:32:27.453Z,22.30
2018-04-22T06:33:28.953Z,22.10
2018-04-22T06:34:27.523Z,22.70
2018-04-22T06:35:27.734Z,21.10
2018-04-22T06:36:27.555Z,21.50
2018-04-22T06:37:27.727Z,21.30
2018-04-22T06:38:27.748Z,20.60
2018-04-22T06:39:27.891Z,20.60
2018-04-22T06:40:27.971Z,19.60
2018-04-22T06:41:28.063Z,20.10
2018-04-22T06:42:30.178Z,19.40
2018-04-22T06:43:28.292Z,20.00
2018-04-22T06:44:28.438Z,20.10
2018-04-22T06:45:28.546Z,18.50
2018-04-22T06:46:28.685Z,18.70
2018-04-22T06:47:28.748Z,18.40
2018-04-22T06:48:28.910Z,18.70
2018-04-22T06:49:28.916Z,18.00
2018-04-22T06:50:29.129Z,17.80
2018-04-22T06:51:29.256Z,17.70
2018-04-22T06:52:29.235Z,18.20
2018-04-22T06:53:29.378Z,18.30
2018-04-22T06:54:29.480Z,17.40
2018-04-22T06:55:29.623Z,18.10
2018-04-22T06:56:29.710Z,17.50
2018-04-22T06:57:29.832Z,18.20
2018-04-22T06:58:29.956Z,18.20
2018-04-22T06:59:30.163Z,18.40
2018-04-22T07:00:30.125Z,18.70
2018-04-22T07:01:30.287Z,17.50
2018-04-22T07:02:30.350Z,17.20
2018-04-22T07:03:30.401Z,18.30
2018-04-22T07:04:30.596Z,18.60
2018-04-22T07:05:31.060Z,17.50
2018-04-22T07:06:30.717Z,17.80
2018-04-22T07:07:31.326Z,18.20
2018-04-22T07:08:30.941Z,18.60
2018-04-22T07:09:31.056Z,18.20
2018-04-22T07:10:31.160Z,18.70
2018-04-22T07:11:31.300Z,18.90
2018-04-22T07:12:31.413Z,17.90
2018-04-22T07:13:32.093Z,17.70
2018-04-22T07:14:31.659Z,18.20
2018-04-22T07:15:31.747Z,18.70
2018-04-22T07:16:31.916Z,18.60
2018-04-22T07:17:33.291Z,18.80
2018-04-22T07:18:32.275Z,18.50
2018-04-22T07:19:32.062Z,18.20
2018-04-22T07:20:32.345Z,18.30
2018-04-22T07:21:33.179Z,18.70
2018-04-22T07:22:32.290Z,18.40
2018-04-22T07:23:32.387Z,19.10
2018-04-22T07:24:32.517Z,19.00
2018-04-22T07:25:32.707Z,18.60
2018-04-22T07:26:32.735Z,19.40
2018-04-22T07:27:32.771Z,19.20
2018-04-22T07:28:33.024Z,19.80
2018-04-22T07:29:32.923Z,19.40
2018-04-22T07:30:32.991Z,20.90
2018-04-22T07:31:33.488Z,20.00
2018-04-22T07:32:33.245Z,19.40
2018-04-22T07:33:33.236Z,20.30
2018-04-22T07:34:33.381Z,19.50
2018-04-22T07:35:33.511Z,20.70
2018-04-22T07:36:33.929Z,22.20
2018-04-22T07:37:33.854Z,21.40
2018-04-22T07:38:33.899Z,21.00
2018-04-22T07:39:34.001Z,21.00
2018-04-22T07:40:33.986Z,20.80
2018-04-22T07:41:34.074Z,22.80
2018-04-22T07:42:34.206Z,23.10
2018-04-22T07:43:34.274Z,22.80
2018-04-22T07:44:34.398Z,24.30
2018-04-22T07:45:34.496Z,24.30
2018-04-22T07:46:34.639Z,23.70
2018-04-22T07:47:34.755Z,23.50
2018-04-22T07:48:35.165Z,23.90
2018-04-22T07:49:42.650Z,23.60
2018-04-22T07:50:35.390Z,25.30
2018-04-22T07:51:35.261Z,25.70
2018-04-22T07:52:35.460Z,25.00
2018-04-22T07:53:35.600Z,25.80
2018-04-22T07:54:35.602Z,25.00
2018-04-22T07:55:35.699Z,24.20
2018-04-22T07:56:35.790Z,23.90
2018-04-22T07:57:35.932Z,23.30
2018-04-22T07:58:36.037Z,23.60
2018-04-22T07:59:36.258Z,23.70
2018-04-22T08:00:36.439Z,23.00
2018-04-22T08:01:36.597Z,23.10
2018-04-22T08:02:36.603Z,23.20
2018-04-22T08:03:37.531Z,21.80
2018-04-22T08:04:36.681Z,23.10
2018-04-22T08:05:36.841Z,22.50
2018-04-22T08:06:36.987Z,23.40
2018-04-22T08:07:37.148Z,22.60
2018-04-22T08:08:37.259Z,22.90
2018-04-22T08:09:37.376Z,22.30
2018-04-22T08:10:38.457Z,22.10
2018-04-22T08:11:37.611Z,22.60
2018-04-22T08:12:37.731Z,22.60
2018-04-22T08:13:37.861Z,22.60
2018-04-22T08:14:37.960Z,22.90
2018-04-22T08:15:38.061Z,23.60
2018-04-22T08:16:38.179Z,24.00
2018-04-22T08:17:38.325Z,23.40
2018-04-22T08:18:38.341Z,23.50
2018-04-22T08:19:38.528Z,22.40
2018-04-22T08:20:38.493Z,23.30
2018-04-22T08:21:38.653Z,23.30
2018-04-22T08:22:38.767Z,22.80
2018-04-22T08:23:39.085Z,23.60
2018-04-22T08:24:39.025Z,22.80
2018-04-22T08:25:39.216Z,23.20
2018-04-22T08:26:39.462Z,23.20
2018-04-22T08:27:39.327Z,24.30
2018-04-22T08:28:39.431Z,22.80
2018-04-22T08:29:39.523Z,23.70
2018-04-22T08:30:39.623Z,23.70
2018-04-22T08:31:39.810Z,24.60
2018-04-22T08:32:39.780Z,24.80
2018-04-22T08:33:39.950Z,25.20
2018-04-22T08:34:39.925Z,26.00
2018-04-22T08:35:40.085Z,25.50
2018-04-22T08:36:40.158Z,25.30
2018-04-22T08:37:40.271Z,25.40
2018-04-22T08:38:40.366Z,24.10
2018-04-22T08:39:40.732Z,24.30
2018-04-22T08:40:40.576Z,24.90
2018-04-22T08:41:40.847Z,24.00
2018-04-22T08:42:40.999Z,24.70
2018-04-22T08:43:40.935Z,24.70
2018-04-22T08:44:40.985Z,23.10
2018-04-22T08:45:41.103Z,25.40
2018-04-22T08:46:41.230Z,24.80
2018-04-22T08:47:41.322Z,24.20
2018-04-22T08:48:41.448Z,24.50
2018-04-22T08:49:41.651Z,24.60
2018-04-22T08:50:41.678Z,24.10
2018-04-22T08:51:41.783Z,23.70
2018-04-22T08:52:41.835Z,23.80
2018-04-22T08:53:41.977Z,24.90
2018-04-22T08:54:42.085Z,23.90
2018-04-22T08:55:42.171Z,24.50
2018-04-22T08:56:42.335Z,24.60
2018-04-22T08:57:42.432Z,25.40
2018-04-22T08:58:42.538Z,25.90
2018-04-22T08:59:42.641Z,25.70
2018-04-22T09:00:42.753Z,25.20
2018-04-22T09:01:42.870Z,25.20
2018-04-22T09:02:43.020Z,24.00
2018-04-22T09:03:43.131Z,23.80
2018-04-22T09:04:43.256Z,24.60
2018-04-22T09:05:43.359Z,23.30
2018-04-22T09:06:43.461Z,23.40
2018-04-22T09:07:43.566Z,23.30
2018-04-22T09:08:43.670Z,23.90
2018-04-22T09:09:43.772Z,23.40
2018-04-22T09:10:43.876Z,23.10
2018-04-22T09:11:43.996Z,23.00
2018-04-22T09:12:44.099Z,23.90
2018-04-22T09:13:44.331Z,23.50
2018-04-22T09:14:44.313Z,23.20
2018-04-22T09:15:44.453Z,22.90
2018-04-22T09:16:44.533Z,21.70
2018-04-22T09:17:44.641Z,21.70
2018-04-22T09:18:44.743Z,21.60
2018-04-22T09:19:44.850Z,21.90
2018-04-22T09:20:44.949Z,22.70
2018-04-22T09:21:45.064Z,22.60
2018-04-22T09:22:45.161Z,21.60
2018-04-22T09:23:45.266Z,20.60
2018-04-22T09:24:45.372Z,20.30
2018-04-22T09:25:45.464Z,20.50
2018-04-22T09:26:45.566Z,21.90
2018-04-22T09:27:45.671Z,19.70
2018-04-22T09:28:45.784Z,20.60
2018-04-22T09:29:45.881Z,21.30
2018-04-22T09:30:45.996Z,20.40
2018-04-22T09:31:46.097Z,20.00
2018-04-22T09:32:46.204Z,21.50
2018-04-22T09:33:46.311Z,20.70
2018-04-22T09:34:46.415Z,21.50
2018-04-22T09:35:46.514Z,20.20
2018-04-22T09:36:46.619Z,21.10
2018-04-22T09:37:46.728Z,21.60
2018-04-22T09:38:46.827Z,20.00
2018-04-22T09:39:46.954Z,22.70
2018-04-22T09:40:47.062Z,20.60
2018-04-22T09:41:47.168Z,20.60
2018-04-22T09:42:47.271Z,21.10
2018-04-22T09:43:47.377Z,21.10
2018-04-22T09:44:47.489Z,20.10
2018-04-22T09:45:47.595Z,20.70
2018-04-22T09:46:47.702Z,19.80
2018-04-22T09:47:47.805Z,19.40
2018-04-22T09:48:47.922Z,21.10
2018-04-22T09:49:48.035Z,19.00
2018-04-22T09:50:48.140Z,18.40
2018-04-22T09:51:48.244Z,19.00
2018-04-22T09:52:48.350Z,19.70
2018-04-22T09:53:48.485Z,17.80
2018-04-22T09:54:48.595Z,19.50
2018-04-22T09:55:48.693Z,18.10
2018-04-22T09:56:48.798Z,18.40
2018-04-22T09:57:48.902Z,20.20
2018-04-22T09:58:49.004Z,18.80
2018-04-22T09:59:49.110Z,18.30
2018-04-22T10:00:49.212Z,18.30
2018-04-22T10:01:49.315Z,18.20
2018-04-22T10:02:49.425Z,18.90
2018-04-22T10:03:49.517Z,18.60
2018-04-22T10:04:49.636Z,18.40
2018-04-22T10:05:49.746Z,18.60
2018-04-22T10:06:49.836Z,18.60
2018-04-22T10:07:49.932Z,17.40
2018-04-22T10:08:50.036Z,17.20
2018-04-22T10:09:50.136Z,19.00
2018-04-22T10:10:50.242Z,17.40
2018-04-22T10:11:50.357Z,18.50
2018-04-22T10:12:50.458Z,17.30
2018-04-22T10:13:50.562Z,17.10
2018-04-22T10:14:50.669Z,16.80
2018-04-22T10:15:50.770Z,16.80
2018-04-22T10:16:50.874Z,18.30
2018-04-22T10:17:50.986Z,16.80
2018-04-22T10:18:51.093Z,16.00
2018-04-22T10:19:51.198Z,17.50
2018-04-22T10:20:51.308Z,16.50
2018-04-22T10:21:51.433Z,14.80
2018-04-22T10:22:51.519Z,15.50
2018-04-22T10:23:51.622Z,15.50
2018-04-22T10:24:51.794Z,16.80
2018-04-22T10:25:51.836Z,16.30
2018-04-22T10:26:51.953Z,16.80
2018-04-22T10:27:52.066Z,17.70
2018-04-22T10:28:52.173Z,16.50
2018-04-22T10:29:52.279Z,15.30
2018-04-22T10:30:52.393Z,15.30
2018-04-22T10:31:52.524Z,15.80
2018-04-22T10:32:52.631Z,15.60
2018-04-22T10:33:52.736Z,14.70
2018-04-22T10:34:52.843Z,14.60
2018-04-22T10:35:52.960Z,12.90
2018-04-22T10:36:53.070Z,13.30
2018-04-22T10:37:53.177Z,11.70
2018-04-22T10:38:53.283Z,10.60
2018-04-22T10:39:53.385Z,10.80
2018-04-22T10:40:53.501Z,10.50
2018-04-22T10:41:53.640Z,9.30
2018-04-22T10:42:53.734Z,9.20
2018-04-22T10:43:53.844Z,9.70
2018-04-22T10:44:53.966Z,10.00
2018-04-22T10:45:54.058Z,10.30
2018-04-22T10:46:54.172Z,8.90
2018-04-22T10:47:54.275Z,8.70
2018-04-22T10:48:54.380Z,9.10
2018-04-22T10:49:54.490Z,8.70
2018-04-22T10:50:54.603Z,8.90
2018-04-22T10:51:54.708Z,8.70
2018-04-22T10:52:54.817Z,9.30
2018-04-22T10:53:54.926Z,8.80
2018-04-22T10:54:55.033Z,8.50
2018-04-22T10:55:55.157Z,8.60
2018-04-22T10:56:55.266Z,8.10
2018-04-22T10:57:55.382Z,8.70
2018-04-22T10:58:55.477Z,8.40
2018-04-22T10:59:55.614Z,7.80
2018-04-22T11:00:55.693Z,8.10
2018-04-22T11:01:55.797Z,7.80
2018-04-22T11:02:55.903Z,8.50
2018-04-22T11:03:56.009Z,7.60
2018-04-22T11:04:56.117Z,7.90
2018-04-22T11:05:56.208Z,7.50
2018-04-22T11:06:56.351Z,7.40
2018-04-22T11:07:56.689Z,7.40
2018-04-22T11:08:56.591Z,8.10
2018-04-22T11:09:56.705Z,7.20
2018-04-22T11:10:56.810Z,7.10
2018-04-22T11:11:57.607Z,8.00
2018-04-22T11:12:56.944Z,7.00
2018-04-22T11:13:57.111Z,7.50
2018-04-22T11:14:57.120Z,9.30
2018-04-22T11:15:57.239Z,8.50
2018-04-22T11:16:57.394Z,8.10
2018-04-22T11:17:57.765Z,7.70
2018-04-22T11:18:57.591Z,7.80
2018-04-22T11:19:57.584Z,7.50
2018-04-22T11:20:58.062Z,7.50
2018-04-22T11:21:57.789Z,7.00
2018-04-22T11:22:57.896Z,6.90
2018-04-22T11:23:58.302Z,6.80
2018-04-22T11:24:58.201Z,7.90
2018-04-22T11:25:58.336Z,7.80
2018-04-22T11:26:58.458Z,7.70
2018-04-22T11:27:58.798Z,8.00
2018-04-22T11:28:58.682Z,7.00
2018-04-22T11:29:58.789Z,7.10
2018-04-22T11:30:58.932Z,7.20
2018-04-22T11:31:59.057Z,7.10
2018-04-22T11:32:59.235Z,7.00
2018-04-22T11:33:59.333Z,6.90
2018-04-22T11:34:59.470Z,7.10
2018-04-22T11:35:59.591Z,6.70
2018-04-22T11:36:59.644Z,7.00
2018-04-22T11:37:59.765Z,7.00
2018-04-22T11:38:59.945Z,6.60
2018-04-22T11:40:00.063Z,7.20
2018-04-22T11:41:00.211Z,6.50
2018-04-22T11:42:00.407Z,6.70
2018-04-22T11:43:00.470Z,6.70
2018-04-22T11:44:00.640Z,6.70
2018-04-22T11:45:00.674Z,7.20
2018-04-22T11:46:00.778Z,7.40
2018-04-22T11:47:00.915Z,7.00
2018-04-22T11:48:01.048Z,6.40
2018-04-22T11:49:01.167Z,7.10
2018-04-22T11:50:01.247Z,6.30
2018-04-22T11:51:01.362Z,6.20
2018-04-22T11:52:01.461Z,5.90
2018-04-22T11:53:01.671Z,6.30
2018-04-22T11:54:01.986Z,6.10
2018-04-22T11:55:02.281Z,6.00
2018-04-22T11:56:02.027Z,6.50
2018-04-22T11:57:02.081Z,6.60
2018-04-22T11:58:02.135Z,6.20
2018-04-22T11:59:02.263Z,6.20
2018-04-22T12:00:02.686Z,6.40
2018-04-22T12:01:02.501Z,6.20
2018-04-22T12:02:02.633Z,5.80
2018-04-22T12:03:02.831Z,5.70
2018-04-22T12:04:02.825Z,6.10
2018-04-22T12:05:03.655Z,6.10
2018-04-22T12:06:03.044Z,6.00
2018-04-22T12:07:03.157Z,5.40
2018-04-22T12:08:03.359Z,5.60
2018-04-22T12:09:03.352Z,5.70
2018-04-22T12:10:03.595Z,5.80
2018-04-22T12:11:03.668Z,5.70
2018-04-22T12:12:03.770Z,5.90
2018-04-22T12:13:03.916Z,5.80
2018-04-22T12:14:04.000Z,5.20
2018-04-22T12:15:04.170Z,5.60
2018-04-22T12:16:04.353Z,6.00
2018-04-22T12:17:04.247Z,5.70
2018-04-22T12:18:04.533Z,6.00
2018-04-22T12:19:04.440Z,5.80
2018-04-22T12:20:04.591Z,5.70
2018-04-22T12:21:04.623Z,5.70
2018-04-22T12:22:04.797Z,5.80
2018-04-22T12:23:04.768Z,5.60
2018-04-22T12:24:04.878Z,5.10
2018-04-22T12:25:05.044Z,5.50
2018-04-22T12:26:05.215Z,5.80
2018-04-22T12:27:05.256Z,5.30
2018-04-22T12:28:05.496Z,5.60
2018-04-22T12:29:05.507Z,6.00
2018-04-22T12:30:05.674Z,5.70
2018-04-22T12:31:05.784Z,5.10
2018-04-22T12:32:05.949Z,5.70
2018-04-22T12:33:06.012Z,5.70
2018-04-22T12:34:06.200Z,5.50
2018-04-22T12:35:06.210Z,5.20
2018-04-22T12:36:06.571Z,5.20
2018-04-22T12:37:06.649Z,4.70
2018-04-22T12:38:06.802Z,4.80
2018-04-22T12:39:07.400Z,5.10
2018-04-22T12:40:06.877Z,5.00
2018-04-22T12:41:07.014Z,4.60
2018-04-22T12:42:06.865Z,4.50
2018-04-22T12:43:07.010Z,4.40
2018-04-22T12:44:07.390Z,4.70
2018-04-22T12:45:07.297Z,4.80
2018-04-22T12:46:07.482Z,4.80
2018-04-22T12:47:07.550Z,4.20
2018-04-22T12:48:07.826Z,4.20
2018-04-22T12:49:08.758Z,4.40
2018-04-22T12:50:09.766Z,4.00
2018-04-22T12:51:08.188Z,4.30
2018-04-22T12:52:07.988Z,3.70
2018-04-22T12:53:08.195Z,4.00
2018-04-22T12:54:08.507Z,4.50
2018-04-22T12:55:08.398Z,4.80
2018-04-22T12:56:08.435Z,4.40
2018-04-22T12:57:09.815Z,3.90
2018-04-22T12:58:08.850Z,4.20
2018-04-22T12:59:08.952Z,3.90